Forseti — V2PV4 — position and weather

sailwx.info

Track history (hours):
 
Tides and Currents Weather Stations Pressure Air Temp Water Temp Dewpoint Dewpoint Depression Visibility Wind Speed Wind Dir Waves Ship Positions

Forseti

Last reported at 2014-Oct-12 21:25 UTC. Time now 2014-Oct-20 04:27 UTC.
Position N 55°57' E 016°28'.

Length 85 m; draft 4.2 m.

Type: Cargo ship. MMSI: 304010297.

Date/timePositionNaut miles runAvg speedWind from/ knotsBaromVisibWave heightAir tempDewpointWater temp
2014-Oct-12 21:25N 55°57' E 016°28'78 9.5
2014-Oct-12 13:08N 55°16' E 014°29'810.0
2014-Oct-12 12:20N 55°11' E 014°18'4110.3
2014-Oct-12 08:22N 55°14' E 013°07'910.5
2014-Oct-12 07:33N 55°15' E 012°52'9 9.2
2014-Oct-12 06:33N 55°19' E 012°38'10 9.6
2014-Oct-12 05:33N 55°29' E 012°41'9 9.0
2014-Oct-12 04:33N 55°38' E 012°42'9 9.3
2014-Oct-12 03:33N 55°47' E 012°41'9 9.3
2014-Oct-12 02:33N 55°56' E 012°38'8 8.4
2014-Oct-12 01:33N 56°05' E 012°36'9 9.4
2014-Oct-12 00:33N 56°10' E 012°23'10 9.9
2014-Oct-11 23:34N 56°16' E 012°08'  
2014-Oct-09 14:33N 56°59' E 010°19'9 9.1
2014-Oct-09 13:33N 57°03' E 010°04'3 3.1
2014-Oct-09 12:32N 57°04' E 009°58'0 0.0
2014-Oct-09 11:32N 57°04' E 009°58'0 0.0
2014-Oct-09 10:29N 57°04' E 009°58'0 0.0
2014-Oct-09 09:32N 57°04' E 009°58'0 0.0
2014-Oct-09 08:32N 57°04' E 009°58'0 0.0
2014-Oct-09 07:32N 57°04' E 009°58'0 0.0
2014-Oct-09 06:32N 57°04' E 009°58'0 0.0
2014-Oct-09 05:31N 57°04' E 009°58'0 0.0
2014-Oct-09 04:28N 57°04' E 009°58'0 0.1
2014-Oct-09 03:31N 57°04' E 009°58'3 2.8
2014-Oct-09 02:34N 57°04' E 010°03'9 9.1
2014-Oct-09 01:33N 56°59' E 010°18'  
2014-Oct-05 18:31N 57°19' E 010°42'5 4.5
2014-Oct-05 17:30N 57°24' E 010°42'4 4.3
2014-Oct-05 16:31N 57°28' E 010°43'4 4.5
2014-Oct-05 15:33N 57°32' E 010°43'4 4.4
2014-Oct-05 14:33N 57°37' E 010°44'4 4.5
2014-Oct-05 13:33N 57°41' E 010°44'5 4.5
2014-Oct-05 12:33N 57°46' E 010°44'5 5.3
2014-Oct-05 11:33N 57°46' E 010°34'7 7.4
2014-Oct-05 10:33N 57°44' E 010°21'7 6.7
2014-Oct-05 09:26N 57°41' E 010°08'80 8.1
2014-Oct-04 23:32N 56°55' E 008°08'10 9.6
2014-Oct-04 22:32N 56°47' E 007°58'113 9.3
2014-Oct-04 10:26N 55°13' E 006°07'6310.0
2014-Oct-04 04:08N 54°20' E 005°09'710.2
2014-Oct-04 03:28N 54°14' E 005°03'910.2
2014-Oct-04 02:33N 54°06' E 004°54'1010.0
2014-Oct-04 01:31N 53°56' E 004°52'1010.2
2014-Oct-04 00:33N 53°46' E 004°51'1010.5
2014-Oct-03 23:33N 53°36' E 004°50'1110.7
2014-Oct-03 22:33N 53°26' E 004°42'1110.6
2014-Oct-03 21:33N 53°16' E 004°35'1310.2
2014-Oct-03 20:18N 53°05' E 004°26'35 9.3
2014-Oct-03 16:31N 52°34' E 003°57'7 7.3
2014-Oct-03 15:33N 52°28' E 003°54'9 9.0
2014-Oct-03 14:33N 52°19' E 003°52'9 9.3
2014-Oct-03 13:33N 52°10' E 003°55'8 7.8
2014-Oct-03 12:33N 52°02' E 003°56'1110.7
2014-Oct-03 11:33N 51°57' E 004°11'9 9.0
2014-Oct-03 10:33N 51°54' E 004°25'0 0.1
2014-Oct-03 09:29N 51°54' E 004°25'0 0.0
2014-Oct-03 08:32N 51°54' E 004°25'0 0.0
2014-Oct-03 07:20N 51°54' E 004°25'0 0.0
2014-Oct-03 06:32N 51°54' E 004°25'0 0.0
2014-Oct-03 05:32N 51°54' E 004°25'0 0.0
2014-Oct-03 04:32N 51°54' E 004°25'0 0.0
2014-Oct-03 03:32N 51°54' E 004°25'0 0.0
2014-Oct-03 02:32N 51°54' E 004°25'0 0.0
2014-Oct-03 01:32N 51°54' E 004°25'0 0.0
2014-Oct-03 00:32N 51°54' E 004°25'0 0.0
2014-Oct-02 23:32N 51°54' E 004°25'0 0.0
2014-Oct-02 22:32N 51°54' E 004°25'0 0.0
2014-Oct-02 21:32N 51°54' E 004°25'  
Track history (hours):
 
Tides and Currents Weather Stations Pressure Air Temp Water Temp Dewpoint Dewpoint Depression Visibility Wind Speed Wind Dir Waves Ship Positions

Forseti

Last reported at 2014-Oct-12 21:25 UTC. Time now 2014-Oct-20 04:27 UTC.
Position N 55°57' E 016°28'.

Length 85 m; draft 4.2 m.

Type: Cargo ship. MMSI: 304010297.

Date/timePositionNaut miles runAvg speedWind from/ knotsBaromVisibWave heightAir tempDewpointWater temp
2014-Oct-12 21:25N 55°57' E 016°28'78 9.5
2014-Oct-12 13:08N 55°16' E 014°29'810.0
2014-Oct-12 12:20N 55°11' E 014°18'4110.3
2014-Oct-12 08:22N 55°14' E 013°07'910.5
2014-Oct-12 07:33N 55°15' E 012°52'9 9.2
2014-Oct-12 06:33N 55°19' E 012°38'10 9.6
2014-Oct-12 05:33N 55°29' E 012°41'9 9.0
2014-Oct-12 04:33N 55°38' E 012°42'9 9.3
2014-Oct-12 03:33N 55°47' E 012°41'9 9.3
2014-Oct-12 02:33N 55°56' E 012°38'8 8.4
2014-Oct-12 01:33N 56°05' E 012°36'9 9.4
2014-Oct-12 00:33N 56°10' E 012°23'10 9.9
2014-Oct-11 23:34N 56°16' E 012°08'  
2014-Oct-09 14:33N 56°59' E 010°19'9 9.1
2014-Oct-09 13:33N 57°03' E 010°04'3 3.1
2014-Oct-09 12:32N 57°04' E 009°58'0 0.0
2014-Oct-09 11:32N 57°04' E 009°58'0 0.0
2014-Oct-09 10:29N 57°04' E 009°58'0 0.0
2014-Oct-09 09:32N 57°04' E 009°58'0 0.0
2014-Oct-09 08:32N 57°04' E 009°58'0 0.0
2014-Oct-09 07:32N 57°04' E 009°58'0 0.0
2014-Oct-09 06:32N 57°04' E 009°58'0 0.0
2014-Oct-09 05:31N 57°04' E 009°58'0 0.0
2014-Oct-09 04:28N 57°04' E 009°58'0 0.1
2014-Oct-09 03:31N 57°04' E 009°58'3 2.8
2014-Oct-09 02:34N 57°04' E 010°03'9 9.1
2014-Oct-09 01:33N 56°59' E 010°18'  
2014-Oct-05 18:31N 57°19' E 010°42'5 4.5
2014-Oct-05 17:30N 57°24' E 010°42'4 4.3
2014-Oct-05 16:31N 57°28' E 010°43'4 4.5
2014-Oct-05 15:33N 57°32' E 010°43'4 4.4
2014-Oct-05 14:33N 57°37' E 010°44'4 4.5
2014-Oct-05 13:33N 57°41' E 010°44'5 4.5
2014-Oct-05 12:33N 57°46' E 010°44'5 5.3
2014-Oct-05 11:33N 57°46' E 010°34'7 7.4
2014-Oct-05 10:33N 57°44' E 010°21'7 6.7
2014-Oct-05 09:26N 57°41' E 010°08'80 8.1
2014-Oct-04 23:32N 56°55' E 008°08'10 9.6
2014-Oct-04 22:32N 56°47' E 007°58'113 9.3
2014-Oct-04 10:26N 55°13' E 006°07'6310.0
2014-Oct-04 04:08N 54°20' E 005°09'710.2
2014-Oct-04 03:28N 54°14' E 005°03'910.2
2014-Oct-04 02:33N 54°06' E 004°54'1010.0
2014-Oct-04 01:31N 53°56' E 004°52'1010.2
2014-Oct-04 00:33N 53°46' E 004°51'1010.5
2014-Oct-03 23:33N 53°36' E 004°50'1110.7
2014-Oct-03 22:33N 53°26' E 004°42'1110.6
2014-Oct-03 21:33N 53°16' E 004°35'1310.2
2014-Oct-03 20:18N 53°05' E 004°26'35 9.3
2014-Oct-03 16:31N 52°34' E 003°57'7 7.3
2014-Oct-03 15:33N 52°28' E 003°54'9 9.0
2014-Oct-03 14:33N 52°19' E 003°52'9 9.3
2014-Oct-03 13:33N 52°10' E 003°55'8 7.8
2014-Oct-03 12:33N 52°02' E 003°56'1110.7
2014-Oct-03 11:33N 51°57' E 004°11'9 9.0
2014-Oct-03 10:33N 51°54' E 004°25'0 0.1
2014-Oct-03 09:29N 51°54' E 004°25'0 0.0
2014-Oct-03 08:32N 51°54' E 004°25'0 0.0
2014-Oct-03 07:20N 51°54' E 004°25'0 0.0
2014-Oct-03 06:32N 51°54' E 004°25'0 0.0
2014-Oct-03 05:32N 51°54' E 004°25'0 0.0
2014-Oct-03 04:32N 51°54' E 004°25'0 0.0
2014-Oct-03 03:32N 51°54' E 004°25'0 0.0
2014-Oct-03 02:32N 51°54' E 004°25'0 0.0
2014-Oct-03 01:32N 51°54' E 004°25'0 0.0
2014-Oct-03 00:32N 51°54' E 004°25'0 0.0
2014-Oct-02 23:32N 51°54' E 004°25'0 0.0
2014-Oct-02 22:32N 51°54' E 004°25'0 0.0
2014-Oct-02 21:32N 51°54' E 004°25'  

Dump ship's entire track history